Weather 🌤️

Recent data

Temperatures

Wind

Pressure

Humidity & Precipitation

Last data
obsTime qcStatus tempAvg heatindexAvg windspeedAvg windgustAvg winddirAvg pressureAvg humidityAvg precipRate precipTotal
2026-08-31 16:59:56 1 25.4 25.3 8.3 24.1 233 999.32 48 0 0
2026-08-31 16:54:54 1 25.5 25.3 12.2 24.1 228 999.32 47.4 0 0
2026-08-31 16:49:53 1 25.5 25.3 13.7 24.1 237 999.32 48 0 0
2026-08-31 16:44:50 1 25.4 25.2 9.8 24.8 233 999.32 48.8 0 0
2026-08-31 16:39:56 1 25.3 25.2 8.5 24.8 240 999.32 49 0 0
2026-08-31 16:34:56 1 25.3 25.1 8 24.8 229 999.49 49 0 0
2026-08-31 16:29:56 1 25.2 25 8.7 24.8 240 999.49 49 0 0
2026-08-31 16:24:56 1 25.1 25 10.6 24.8 235 999.49 49 0 0
2026-08-31 16:19:55 1 25 24.8 9 24.8 236 999.49 49 0 0
2026-08-31 16:14:50 1 24.8 24.7 13.6 29 241 999.66 50.2 0 0
2026-08-31 16:09:56 1 24.8 24.6 15 29.1 250 999.49 50.2 0 0
2026-08-31 16:04:56 1 24.6 24.4 14.2 29.1 247 999.49 50.9 0 0

Hourly data

Temperatures

Wind

Pressure

Humidity & Precipitation

Last data
obsTime qcStatus tempAvg heatindexAvg windspeedAvg windgustAvg winddirAvg pressureAvg humidityAvg precipRate precipTotal
2026-08-31 15:59:56 1 24.1 23.9 14.5 32.1 237 999.83 52.6 0 0
2026-08-31 14:59:52 1 24 23.8 14.2 28.2 237 1000.17 53.8 0 0
2026-08-31 13:59:56 1 23.8 23.6 10.5 22.4 235 999.83 53.1 0 0
2026-08-31 12:59:56 1 22.9 22.7 10.4 21.7 236 1000.17 56 0 0
2026-08-31 11:59:56 1 22.3 22 8.7 25.3 236 1000 55.6 0 0
2026-08-31 10:59:57 1 21 20.8 13.4 24.1 236 999.66 57.6 0 0
2026-08-31 09:59:56 1 19.7 19.7 8.7 17 235 999.32 60.3 0 0
2026-08-31 08:59:56 1 18.8 18.8 2.2 14.3 210 999.32 61.5 0 0
2026-08-31 07:59:56 0 18.5 18.5 7.1 28.6 231 998.65 62 0 0
2026-08-31 06:59:52 0 10.5 30.7 236 998.31 0 0
2026-08-31 05:59:52 0 19.7 19.7 15.4 27.5 231 997.8 61 0 0
2026-08-31 04:59:52 0 20.3 20.3 9.9 19.4 233 998.31 59.4 0 0
2026-08-31 03:59:51 0 4.7 9.4 230 998.31 0 0
2026-08-31 02:59:52 0 2.1 10.5 226 997.97 0 0
2026-08-31 01:59:54 0 2.5 11 230 997.63 0 0
2026-08-31 00:59:54 0 2.7 8.4 223 997.63 0 0
2026-08-30 23:59:54 0 0.9 4.7 190 997.46 0 0
2026-08-30 22:59:54 0 23.2 23.3 1.9 6.4 179 996.62 65.4 0 0
2026-08-30 21:59:54 0 24.6 24.7 2 7.3 200 995.43 60.7 0 0
2026-08-30 20:59:54 0 26.1 26.3 3 14.1 228 994.25 54.1 0 0
2026-08-30 19:59:56 1 27.2 27.7 7.7 21.1 233 993.4 51.8 0 0
2026-08-30 18:59:54 1 28 28.3 8.4 20.6 232 993.06 48.9 0 0
2026-08-30 17:59:53 1 27.4 28 3.3 7.7 220 993.23 52 0 0
2026-08-30 16:59:54 1 26.8 27.5 2.8 6.9 226 993.74 54 0 0